createdAt,value
2023-02-11T00:00:37.268Z,102478.34
2023-02-11T00:03:07.602Z,102464.22
2023-02-11T00:05:40.484Z,102459.22
2023-02-11T00:08:17.176Z,102465.84
2023-02-11T00:11:10.696Z,102450.00
2023-02-11T00:13:47.432Z,102471.53
2023-02-11T00:16:21.579Z,102477.66
2023-02-11T00:18:53.188Z,102469.22
2023-02-11T00:21:25.614Z,102466.72
2023-02-11T00:23:59.880Z,102470.16
2023-02-11T00:26:30.485Z,102484.03
2023-02-11T00:29:00.946Z,102480.66
2023-02-11T00:31:33.575Z,102478.16
2023-02-11T00:34:06.939Z,102469.47
2023-02-11T00:36:37.376Z,102466.97
2023-02-11T00:39:07.633Z,102475.16
2023-02-11T00:41:39.206Z,102467.50
2023-02-11T00:44:11.114Z,102482.66
2023-02-11T00:46:47.085Z,102486.53
2023-02-11T00:49:17.262Z,102493.84
2023-02-11T00:51:47.806Z,102499.31
2023-02-11T00:54:20.420Z,102488.88
2023-02-11T00:56:52.978Z,102505.69
2023-02-11T00:59:23.157Z,102500.47
2023-02-11T01:01:59.266Z,102508.91
2023-02-11T01:04:50.015Z,102513.91
2023-02-11T01:07:25.965Z,102503.88
2023-02-11T01:09:55.935Z,102493.47
2023-02-11T01:12:26.246Z,102497.56
2023-02-11T01:14:56.156Z,102495.72
2023-02-11T01:17:30.137Z,102489.16
2023-02-11T01:20:00.705Z,102494.19
2023-02-11T01:22:30.739Z,102492.88
2023-02-11T01:25:01.674Z,102492.66
2023-02-11T01:27:38.628Z,102466.31
2023-02-11T01:30:30.226Z,102464.50
2023-02-11T01:33:14.105Z,102458.38
2023-02-11T01:35:44.527Z,102457.25
2023-02-11T01:38:19.776Z,102443.66
2023-02-11T01:40:56.813Z,102450.03
2023-02-11T01:43:28.010Z,102421.25
2023-02-11T01:46:20.404Z,102428.50
2023-02-11T01:48:58.561Z,102401.78
2023-02-11T01:51:32.737Z,102402.38
2023-02-11T01:54:15.873Z,102397.16
2023-02-11T01:57:02.264Z,102346.97
2023-02-11T01:59:36.120Z,102381.97
2023-02-11T02:02:15.903Z,102383.56
2023-02-11T02:04:58.665Z,102388.69
2023-02-11T02:07:36.720Z,102385.94
2023-02-11T02:10:12.694Z,102382.53
2023-02-11T02:12:46.295Z,102371.06
2023-02-11T02:15:25.746Z,102388.66
2023-02-11T02:18:14.603Z,102378.59
2023-02-11T02:21:14.746Z,102384.31
2023-02-11T02:24:14.242Z,102374.50
2023-02-11T02:27:14.074Z,102375.16
2023-02-11T02:30:13.993Z,102384.19
2023-02-11T02:33:21.590Z,102386.69
2023-02-11T02:36:00.785Z,102388.97
2023-02-11T02:38:36.577Z,102379.91
2023-02-11T02:41:15.694Z,102389.19
2023-02-11T02:43:48.841Z,102386.69
2023-02-11T02:46:22.083Z,102368.91
2023-02-11T02:48:55.996Z,102361.63
2023-02-11T02:51:53.848Z,102360.94
2023-02-11T02:54:46.634Z,102358.44
2023-02-11T02:57:30.432Z,102355.94
2023-02-11T03:00:14.881Z,102356.63
2023-02-11T03:02:53.633Z,102354.31
2023-02-11T03:05:47.192Z,102355.63
2023-02-11T03:08:23.540Z,102354.25
2023-02-11T03:10:57.904Z,102346.28
2023-02-11T03:13:35.280Z,102332.94
2023-02-11T03:16:25.181Z,102328.56
2023-02-11T03:19:11.653Z,102334.69
2023-02-11T03:21:46.336Z,102319.69
2023-02-11T03:24:20.183Z,102335.09
2023-02-11T03:26:56.057Z,102324.16
2023-02-11T03:29:36.093Z,102333.28
2023-02-11T03:32:16.491Z,102306.53
2023-02-11T03:35:02.017Z,102289.38
2023-02-11T03:37:41.655Z,102318.69
2023-02-11T03:40:15.913Z,102310.06
2023-02-11T03:42:47.124Z,102307.38
2023-02-11T03:45:23.696Z,102321.25
2023-02-11T03:47:57.828Z,102332.38
2023-02-11T03:50:32.906Z,102321.91
2023-02-11T03:53:07.244Z,102323.03
2023-02-11T03:55:41.677Z,102318.69
2023-02-11T03:58:34.394Z,102323.69
2023-02-11T04:01:24.197Z,102316.66
2023-02-11T04:03:54.556Z,102305.06
2023-02-11T04:06:24.576Z,102325.53
2023-02-11T04:08:58.403Z,102327.31
2023-02-11T04:11:36.579Z,102338.84
2023-02-11T04:14:07.319Z,102340.22
2023-02-11T04:16:39.506Z,102325.34
2023-02-11T04:19:09.487Z,102338.31
2023-02-11T04:21:39.478Z,102346.47
2023-02-11T04:24:11.978Z,102331.47
2023-02-11T04:26:45.391Z,102328.50
2023-02-11T04:29:16.467Z,102338.03
2023-02-11T04:31:46.556Z,102327.59
2023-02-11T04:34:16.607Z,102327.78
2023-02-11T04:36:55.514Z,102331.41
2023-02-11T04:39:30.605Z,102328.03
2023-02-11T04:42:00.740Z,102325.53
2023-02-11T04:44:36.359Z,102332.78
2023-02-11T04:49:49.969Z,102330.72
2023-02-11T04:52:20.025Z,102338.84
2023-02-11T04:54:52.560Z,102331.34
2023-02-11T04:57:22.470Z,102355.66
2023-02-11T04:59:52.415Z,102344.97
2023-02-11T05:02:24.846Z,102347.97
2023-02-11T05:04:55.201Z,102348.56
2023-02-11T05:07:25.679Z,102346.31
2023-02-11T05:10:07.480Z,102334.69
2023-02-11T05:12:39.967Z,102322.69
2023-02-11T05:15:10.839Z,102316.75
2023-02-11T05:17:42.719Z,102285.56
2023-02-11T05:20:13.913Z,102323.56
2023-02-11T05:22:44.733Z,102319.25
2023-02-11T05:25:26.762Z,102327.88
2023-02-11T05:28:03.332Z,102333.56
2023-02-11T05:30:35.880Z,102341.31
2023-02-11T05:33:07.766Z,102343.50
2023-02-11T05:35:45.907Z,102324.38
2023-02-11T05:38:22.208Z,102329.59
2023-02-11T05:40:55.307Z,102326.22
2023-02-11T05:43:30.627Z,102328.72
2023-02-11T05:46:03.189Z,102328.28
2023-02-11T05:48:33.667Z,102307.94
2023-02-11T05:51:03.630Z,102329.84
2023-02-11T05:53:33.683Z,102328.00
2023-02-11T05:56:10.540Z,102324.59
2023-02-11T05:58:40.626Z,102320.50
2023-02-11T06:01:15.960Z,102310.50
2023-02-11T06:03:50.146Z,102317.31
2023-02-11T06:06:20.661Z,102321.41
2023-02-11T06:08:50.690Z,102318.00
2023-02-11T06:11:27.655Z,102310.69
2023-02-11T06:13:58.048Z,102318.63
2023-02-11T06:16:33.974Z,102280.63
2023-02-11T06:19:07.264Z,102312.84
2023-02-11T06:21:44.246Z,102318.75
2023-02-11T06:24:17.445Z,102327.84
2023-02-11T06:26:54.277Z,102331.06
2023-02-11T06:29:37.150Z,102329.25
2023-02-11T06:32:24.595Z,102326.06
2023-02-11T06:35:00.360Z,102333.78
2023-02-11T06:37:33.756Z,102326.47
2023-02-11T06:40:06.866Z,102331.66
2023-02-11T06:42:39.678Z,102333.50
2023-02-11T06:45:11.227Z,102323.56
2023-02-11T06:47:57.407Z,102342.59
2023-02-11T06:50:27.331Z,102333.28
2023-02-11T06:52:57.357Z,102335.28
2023-02-11T06:55:30.029Z,102337.09
2023-02-11T06:58:03.972Z,102331.00
2023-02-11T07:00:34.715Z,102330.78
2023-02-11T07:03:06.011Z,102338.50
2023-02-11T07:05:38.706Z,102337.63
2023-02-11T07:08:08.769Z,102295.22
2023-02-11T07:10:40.537Z,102339.38
2023-02-11T07:13:29.432Z,102347.38
2023-02-11T07:16:01.825Z,102346.09
2023-02-11T07:18:31.989Z,102346.66
2023-02-11T07:21:02.144Z,102340.84
2023-02-11T07:23:32.247Z,102344.75
2023-02-11T07:26:05.829Z,102345.84
2023-02-11T07:28:40.262Z,102327.50
2023-02-11T07:31:10.481Z,102355.13
2023-02-11T07:33:41.239Z,102343.66
2023-02-11T07:36:25.956Z,102354.22
2023-02-11T07:38:58.470Z,102333.97
2023-02-11T07:41:30.563Z,102345.69
2023-02-11T07:44:05.239Z,102353.84
2023-02-11T07:46:36.027Z,102326.03
2023-02-11T07:49:06.650Z,102363.00
2023-02-11T07:51:36.563Z,102367.31
2023-02-11T07:54:14.636Z,102367.03
2023-02-11T07:56:44.555Z,102368.13
2023-02-11T07:59:19.315Z,102371.75
2023-02-11T08:01:51.814Z,102367.47
2023-02-11T08:04:22.963Z,102364.25
2023-02-11T08:06:59.286Z,102360.22
2023-02-11T08:09:30.030Z,102351.25
2023-02-11T08:12:01.126Z,102353.91
2023-02-11T08:14:34.430Z,102347.09
2023-02-11T08:17:04.606Z,102353.91
2023-02-11T08:19:37.971Z,102347.28
2023-02-11T08:22:08.192Z,102337.16
2023-02-11T08:24:39.618Z,102344.38
2023-02-11T08:27:09.721Z,102345.28
2023-02-11T08:29:42.307Z,102357.28
2023-02-11T08:32:12.452Z,102352.00
2023-02-11T08:34:42.467Z,102369.25
2023-02-11T08:37:12.461Z,102361.75
2023-02-11T08:39:42.678Z,102385.19
2023-02-11T08:42:12.663Z,102381.56
2023-02-11T08:44:45.917Z,102386.97
2023-02-11T08:47:18.163Z,102390.91
2023-02-11T08:49:49.853Z,102394.28
2023-02-11T08:52:19.873Z,102392.00
2023-02-11T08:54:50.937Z,102386.50
2023-02-11T08:57:21.243Z,102396.72
2023-02-11T08:59:53.752Z,102387.22
2023-02-11T09:02:25.828Z,102399.03
2023-02-11T09:04:56.036Z,102401.03
2023-02-11T09:07:34.884Z,102404.47
2023-02-11T09:10:06.466Z,102411.97
2023-02-11T09:12:57.397Z,102408.75
2023-02-11T09:15:30.366Z,102411.97
2023-02-11T09:18:00.891Z,102405.63
2023-02-11T09:20:30.958Z,102401.13
2023-02-11T09:23:02.325Z,102413.13
2023-02-11T09:25:32.317Z,102411.53
2023-02-11T09:28:02.391Z,102414.47
2023-02-11T09:30:35.237Z,102415.56
2023-02-11T09:33:05.409Z,102426.09
2023-02-11T09:35:36.679Z,102426.09
2023-02-11T09:38:07.249Z,102411.41
2023-02-11T09:40:45.124Z,102432.41
2023-02-11T09:43:21.113Z,102407.94
2023-02-11T09:46:00.458Z,102434.34
2023-02-11T09:48:33.063Z,102435.47
2023-02-11T09:51:06.196Z,102445.50
2023-02-11T09:53:45.179Z,102450.91
2023-02-11T09:56:17.633Z,102471.56
2023-02-11T09:58:48.202Z,102461.63
2023-02-11T10:01:33.299Z,102469.75
2023-02-11T10:04:10.257Z,102475.53
2023-02-11T10:06:45.042Z,102483.34
2023-02-11T10:09:30.444Z,102479.50
2023-02-11T10:12:12.506Z,102480.41
2023-02-11T10:15:00.675Z,102476.03
2023-02-11T10:17:41.874Z,102480.03
2023-02-11T10:20:24.995Z,102483.81
2023-02-11T10:22:57.539Z,102485.81
2023-02-11T10:25:29.802Z,102494.94
2023-02-11T10:28:02.499Z,102488.59
2023-02-11T10:30:36.285Z,102481.50
2023-02-11T10:33:19.633Z,102475.38
2023-02-11T10:35:51.930Z,102474.56
2023-02-11T10:38:22.069Z,102481.78
2023-02-11T10:40:52.353Z,102480.69
2023-02-11T10:43:27.360Z,102481.88
2023-02-11T10:45:59.675Z,102481.88
2023-02-11T10:48:50.916Z,102477.34
2023-02-11T10:51:31.696Z,102482.06
2023-02-11T10:54:19.562Z,102497.31
2023-02-11T10:56:52.992Z,102496.63
2023-02-11T10:59:30.453Z,102508.63
2023-02-11T11:02:08.085Z,102505.94
2023-02-11T11:04:46.479Z,102498.41
2023-02-11T11:07:30.725Z,102492.72
2023-02-11T11:10:05.984Z,102479.00
2023-02-11T11:12:44.537Z,102487.28
2023-02-11T11:15:21.891Z,102479.97
2023-02-11T11:18:10.645Z,102476.56
2023-02-11T11:21:03.801Z,102489.63
2023-02-11T11:23:34.702Z,102454.19
2023-02-11T11:26:08.765Z,102484.41
2023-02-11T11:28:43.700Z,102493.59
2023-02-11T11:31:24.581Z,102492.22
2023-02-11T11:33:58.524Z,102490.81
2023-02-11T11:36:41.008Z,102493.03
2023-02-11T11:39:27.019Z,102483.59
2023-02-11T11:42:05.767Z,102488.50
2023-02-11T11:44:38.087Z,102494.25
2023-02-11T11:47:44.233Z,102493.97
2023-02-11T11:50:36.260Z,102503.16
2023-02-11T11:53:10.894Z,102501.13
2023-02-11T11:55:46.597Z,102497.94
2023-02-11T11:58:21.891Z,102478.28
2023-02-11T12:01:03.024Z,102487.44
2023-02-11T12:04:22.335Z,102482.34
2023-02-11T12:07:05.189Z,102490.25
2023-02-11T12:09:48.597Z,102485.25
2023-02-11T12:12:33.029Z,102486.63
2023-02-11T12:15:24.906Z,102480.13
2023-02-11T12:18:13.082Z,102481.78
2023-02-11T12:21:06.995Z,102485.59
2023-02-11T12:24:01.558Z,102452.41
2023-02-11T12:26:37.219Z,102476.41
2023-02-11T12:29:18.658Z,102461.59
2023-02-11T12:32:05.595Z,102478.44
2023-02-11T12:35:04.431Z,102485.66
2023-02-11T12:37:50.295Z,102490.28
2023-02-11T12:40:32.146Z,102499.84
2023-02-11T12:43:23.320Z,102485.38
2023-02-11T12:46:17.888Z,102497.78
2023-02-11T12:49:07.601Z,102500.66
2023-02-11T12:51:48.681Z,102497.44
2023-02-11T12:54:37.535Z,102495.19
2023-02-11T12:57:20.521Z,102493.34
2023-02-11T13:00:03.072Z,102492.16
2023-02-11T13:02:40.428Z,102476.44
2023-02-11T13:05:34.711Z,102477.81
2023-02-11T13:08:17.311Z,102483.94
2023-02-11T13:10:53.490Z,102475.03
2023-02-11T13:13:30.751Z,102478.22
2023-02-11T13:16:06.882Z,102484.63
2023-02-11T13:18:55.339Z,102490.28
2023-02-11T13:21:47.201Z,102479.50
2023-02-11T13:24:30.904Z,102489.38
2023-02-11T13:27:09.857Z,102485.09
2023-02-11T13:30:20.077Z,102484.03
2023-02-11T13:33:06.723Z,102492.84
2023-02-11T13:35:40.525Z,102488.13
2023-02-11T13:38:22.373Z,102493.63
2023-02-11T13:41:06.209Z,102493.81
2023-02-11T13:43:43.860Z,102491.03
2023-02-11T13:46:20.189Z,102490.84
2023-02-11T13:48:53.113Z,102465.75
2023-02-11T13:51:39.725Z,102492.28
2023-02-11T13:54:14.407Z,102484.97
2023-02-11T13:56:46.449Z,102486.47
2023-02-11T13:59:48.651Z,102496.03
2023-02-11T14:02:49.893Z,102506.25
2023-02-11T14:05:48.152Z,102515.38
2023-02-11T14:08:41.069Z,102519.00
2023-02-11T14:11:43.478Z,102517.78
2023-02-11T14:14:29.313Z,102519.19
2023-02-11T14:17:40.429Z,102511.84
2023-02-11T14:20:50.322Z,102516.19
2023-02-11T14:23:27.943Z,102506.84
2023-02-11T14:26:19.589Z,102507.75
2023-02-11T14:28:57.674Z,102503.84
2023-02-11T14:31:32.398Z,102509.06
2023-02-11T14:34:26.255Z,102509.56
2023-02-11T14:37:11.052Z,102517.78
2023-02-11T14:40:12.996Z,102513.06
2023-02-11T14:42:47.655Z,102514.69
2023-02-11T14:45:26.420Z,102520.88
2023-02-11T14:48:03.604Z,102518.38
2023-02-11T14:50:44.669Z,102523.53
2023-02-11T14:53:19.246Z,102526.72
2023-02-11T14:55:54.131Z,102514.88
2023-02-11T14:58:26.221Z,102515.09
2023-02-11T15:01:00.201Z,102530.53
2023-02-11T15:03:45.995Z,102528.94
2023-02-11T15:06:23.999Z,102534.66
2023-02-11T15:09:01.367Z,102520.00
2023-02-11T15:11:35.187Z,102542.88
2023-02-11T15:14:12.001Z,102553.44
2023-02-11T15:16:46.078Z,102554.13
2023-02-11T15:19:26.812Z,102557.72
2023-02-11T15:22:02.202Z,102561.16
2023-02-11T15:24:36.204Z,102569.78
2023-02-11T15:27:16.384Z,102572.59
2023-02-11T15:29:52.231Z,102577.81
2023-02-11T15:32:24.050Z,102577.09
2023-02-11T15:34:57.537Z,102561.34
2023-02-11T15:37:32.433Z,102568.41
2023-02-11T15:40:15.380Z,102577.09
2023-02-11T15:42:58.506Z,102569.38
2023-02-11T15:45:33.583Z,102581.91
2023-02-11T15:48:10.879Z,102580.31
2023-02-11T15:50:42.084Z,102576.22
2023-02-11T15:53:28.335Z,102580.50
2023-02-11T15:56:18.693Z,102583.94
2023-02-11T15:58:52.020Z,102579.41
2023-02-11T16:01:34.118Z,102587.66
2023-02-11T16:04:09.550Z,102581.03
2023-02-11T16:06:42.066Z,102582.63
2023-02-11T16:09:34.468Z,102574.66
2023-02-11T16:12:07.612Z,102584.03
2023-02-11T16:14:39.789Z,102579.91
2023-02-11T16:17:12.761Z,102576.50
2023-02-11T16:19:56.096Z,102532.34
2023-02-11T16:22:30.172Z,102564.97
2023-02-11T16:25:03.174Z,102579.09
2023-02-11T16:27:38.700Z,102574.28
2023-02-11T16:30:30.429Z,102575.69
2023-02-11T16:33:00.416Z,102576.59
2023-02-11T16:35:32.027Z,102569.97
2023-02-11T16:38:02.032Z,102537.38
2023-02-11T16:40:35.803Z,102584.31
2023-02-11T16:43:06.849Z,102574.09
2023-02-11T16:45:40.239Z,102567.66
2023-02-11T16:48:12.440Z,102576.31
2023-02-11T16:50:51.425Z,102576.38
2023-02-11T16:53:26.548Z,102576.31
2023-02-11T16:55:59.350Z,102567.31
2023-02-11T16:58:42.289Z,102590.84
2023-02-11T17:01:14.121Z,102592.94
2023-02-11T17:03:45.696Z,102604.09
2023-02-11T17:06:16.305Z,102593.34
2023-02-11T17:08:52.939Z,102597.69
2023-02-11T17:11:27.470Z,102607.72
2023-02-11T17:13:57.472Z,102608.81
2023-02-11T17:16:29.984Z,102609.03
2023-02-11T17:19:02.500Z,102617.47
2023-02-11T17:21:32.777Z,102624.09
2023-02-11T17:24:05.430Z,102615.16
2023-02-11T17:26:38.870Z,102613.56
2023-02-11T17:29:09.669Z,102594.06
2023-02-11T17:31:49.086Z,102613.97
2023-02-11T17:34:20.308Z,102623.31
2023-02-11T17:36:50.400Z,102626.69
2023-02-11T17:39:22.750Z,102620.38
2023-02-11T17:41:57.752Z,102644.47
2023-02-11T17:44:27.648Z,102650.81
2023-02-11T17:46:57.656Z,102623.59
2023-02-11T17:49:30.398Z,102648.50
2023-02-11T17:52:00.505Z,102650.81
2023-02-11T17:54:30.881Z,102648.50
2023-02-11T17:57:03.482Z,102644.41
2023-02-11T17:59:35.575Z,102644.41
2023-02-11T18:02:05.832Z,102645.28
2023-02-11T18:04:35.992Z,102662.19
2023-02-11T18:07:06.480Z,102671.31
2023-02-11T18:09:40.706Z,102676.31
2023-02-11T18:12:13.556Z,102678.84
2023-02-11T18:14:46.587Z,102682.25
2023-02-11T18:17:16.548Z,102683.84
2023-02-11T18:19:46.514Z,102683.66
2023-02-11T18:22:16.648Z,102674.53
2023-02-11T18:24:46.858Z,102670.59
2023-02-11T18:27:19.539Z,102682.25
2023-02-11T18:29:55.707Z,102678.84
2023-02-11T18:32:30.816Z,102682.44
2023-02-11T18:35:02.987Z,102681.81
2023-02-11T18:37:36.161Z,102688.16
2023-02-11T18:40:08.865Z,102691.09
2023-02-11T18:42:42.864Z,102676.13
2023-02-11T18:45:15.703Z,102695.28
2023-02-11T18:47:48.869Z,102706.34
2023-02-11T18:50:18.887Z,102715.91
2023-02-11T18:52:48.855Z,102716.09
2023-02-11T18:55:23.446Z,102708.59
2023-02-11T18:57:59.660Z,102698.94
2023-02-11T19:00:31.180Z,102683.47
2023-02-11T19:03:01.803Z,102683.69
2023-02-11T19:05:33.572Z,102682.09
2023-02-11T19:08:05.008Z,102660.06
2023-02-11T19:10:38.114Z,102683.88
2023-02-11T19:13:12.356Z,102680.47
2023-02-11T19:15:44.104Z,102689.41
2023-02-11T19:18:15.615Z,102688.97
2023-02-11T19:20:46.647Z,102673.06
2023-02-11T19:23:18.072Z,102703.16
2023-02-11T19:25:56.422Z,102714.31
2023-02-11T19:28:30.993Z,102725.44
2023-02-11T19:31:01.417Z,102705.66
2023-02-11T19:33:31.391Z,102712.88
2023-02-11T19:36:16.349Z,102722.72
2023-02-11T19:38:47.252Z,102725.94
2023-02-11T19:41:24.078Z,102734.59
2023-02-11T19:43:56.801Z,102723.72
2023-02-11T19:46:28.121Z,102742.31
2023-02-11T19:48:58.883Z,102732.97
2023-02-11T19:51:29.004Z,102724.50
2023-02-11T19:54:00.610Z,102749.47
2023-02-11T19:56:33.381Z,102751.25
2023-02-11T19:59:09.128Z,102752.84
2023-02-11T20:01:40.199Z,102752.66
2023-02-11T20:04:13.278Z,102754.75
2023-02-11T20:06:43.986Z,102747.91
2023-02-11T20:09:16.461Z,102748.81
2023-02-11T20:11:46.893Z,102749.31
2023-02-11T20:14:21.323Z,102737.81
2023-02-11T20:16:51.466Z,102756.63
2023-02-11T20:19:24.570Z,102753.94
2023-02-11T20:21:56.350Z,102763.53
2023-02-11T20:24:27.637Z,102772.69
2023-02-11T20:26:59.100Z,102762.41
2023-02-11T20:29:38.768Z,102760.88
2023-02-11T20:32:10.731Z,102767.56
2023-02-11T20:34:40.714Z,102770.16
2023-02-11T20:37:10.706Z,102768.44
2023-02-11T20:42:25.932Z,102776.94
2023-02-11T20:44:59.122Z,102771.31
2023-02-11T20:47:29.145Z,102769.28
2023-02-11T20:49:59.356Z,102767.69
2023-02-11T20:52:29.486Z,102768.84
2023-02-11T20:55:00.185Z,102778.88
2023-02-11T20:57:30.122Z,102775.03
2023-02-11T21:00:03.288Z,102782.56
2023-02-11T21:02:34.054Z,102794.22
2023-02-11T21:05:03.982Z,102790.78
2023-02-11T21:07:39.056Z,102794.88
2023-02-11T21:10:10.885Z,102799.44
2023-02-11T21:12:40.925Z,102808.34
2023-02-11T21:15:13.688Z,102811.06
2023-02-11T21:17:45.131Z,102808.56
2023-02-11T21:20:16.037Z,102814.88
2023-02-11T21:22:48.277Z,102813.28
2023-02-11T21:25:18.196Z,102795.88
2023-02-11T21:27:48.172Z,102810.59
2023-02-11T21:30:23.326Z,102819.91
2023-02-11T21:32:53.458Z,102815.81
2023-02-11T21:35:23.676Z,102823.34
2023-02-11T21:37:54.044Z,102823.34
2023-02-11T21:40:29.192Z,102824.00
2023-02-11T21:42:59.631Z,102798.44
2023-02-11T21:45:32.802Z,102831.97
2023-02-11T21:48:02.721Z,102824.66
2023-02-11T21:50:32.744Z,102836.53
2023-02-11T21:53:05.319Z,102844.25
2023-02-11T21:55:36.654Z,102850.84
2023-02-11T21:58:10.201Z,102858.38
2023-02-11T22:00:44.207Z,102857.25
2023-02-11T22:03:17.978Z,102863.88
2023-02-11T22:05:48.338Z,102853.84
2023-02-11T22:08:20.152Z,102866.63
2023-02-11T22:10:51.442Z,102850.72
2023-02-11T22:13:21.423Z,102869.13
2023-02-11T22:16:04.180Z,102871.63
2023-02-11T22:18:52.984Z,102868.69
2023-02-11T22:21:24.997Z,102851.66
2023-02-11T22:23:56.869Z,102871.63
2023-02-11T22:26:28.667Z,102880.28
2023-02-11T22:28:59.013Z,102880.94
2023-02-11T22:31:33.068Z,102888.00
2023-02-11T22:34:04.183Z,102889.81
2023-02-11T22:36:37.425Z,102880.47
2023-02-11T22:39:12.913Z,102894.56
2023-02-11T22:41:44.132Z,102889.59
2023-02-11T22:44:16.433Z,102885.56
2023-02-11T22:46:50.669Z,102901.88
2023-02-11T22:49:21.651Z,102900.28
2023-02-11T22:51:51.937Z,102899.38
2023-02-11T22:54:22.847Z,102899.56
2023-02-11T22:56:54.091Z,102905.06
2023-02-11T22:59:24.140Z,102911.44
2023-02-11T23:01:59.105Z,102905.72
2023-02-11T23:04:29.106Z,102916.00
2023-02-11T23:06:59.043Z,102916.47
2023-02-11T23:09:31.295Z,102916.66
2023-02-11T23:12:01.248Z,102915.31
2023-02-11T23:14:31.310Z,102926.47
2023-02-11T23:17:05.988Z,102918.94
2023-02-11T23:19:36.444Z,102926.69
2023-02-11T23:22:06.394Z,102912.81
2023-02-11T23:24:36.720Z,102922.13
2023-02-11T23:27:07.300Z,102932.09
2023-02-11T23:29:37.394Z,102938.03
2023-02-11T23:32:10.844Z,102934.63
2023-02-11T23:34:47.818Z,102944.84
2023-02-11T23:37:18.107Z,102941.88
2023-02-11T23:39:56.892Z,102941.41
2023-02-11T23:42:27.511Z,102948.94
2023-02-11T23:44:57.703Z,102947.34
2023-02-11T23:47:30.735Z,102944.13
2023-02-11T23:50:00.790Z,102950.75
2023-02-11T23:52:31.389Z,102947.75
2023-02-11T23:55:01.648Z,102949.56
2023-02-11T23:57:35.341Z,102943.41
